Time;durP1;ratioP1;P1;durP2;ratioP2;P2;SDS_P1;SDS_P2;PMS_P1;PMS_P2;Temp;Humidity;BMP_temperature;BMP_pressure;BME280_temperature;BME280_humidity;BME280_pressure;Samples;Min_cycle;Max_cycle;Signal;HPM_P1;HPM_P2
2023/11/18 00:00:12;;;;;;;2.27;1.40;;;;;;;2.56;85.07;98077.91;6222721;28;20648;-52
2023/11/18 00:03:14;;;;;;;2.40;1.50;;;;;;;2.55;84.16;98084.13;6220320;28;20197;-50
2023/11/18 00:06:17;;;;;;;4.07;1.87;;;;;;;2.53;85.22;98087.94;6221922;28;20680;-52
2023/11/18 00:09:19;;;;;;;1.93;1.70;;;;;;;2.48;85.29;98085.84;6222606;28;20223;-52
2023/11/18 00:12:24;;;;;;;2.93;1.40;;;;;;;2.34;86.64;98073.50;6220174;28;20203;-53
2023/11/18 00:15:26;;;;;;;2.20;1.63;;;;;;;2.34;86.47;98081.41;6221699;28;20204;-47
2023/11/18 00:18:28;;;;;;;1.57;1.47;;;;;;;2.66;83.25;98059.22;6221993;28;20255;-51
2023/11/18 00:21:30;;;;;;;2.17;1.57;;;;;;;2.56;84.54;98075.25;6221782;28;20193;-52
2023/11/18 00:24:34;;;;;;;1.83;1.67;;;;;;;2.50;85.20;98088.31;6222406;28;20293;-53
2023/11/18 00:27:37;;;;;;;3.10;1.67;;;;;;;2.68;82.17;98077.44;6221348;28;20582;-49
2023/11/18 00:30:40;;;;;;;1.60;1.50;;;;;;;2.72;82.20;98090.03;6216053;28;20203;-50
2023/11/18 00:33:43;;;;;;;2.23;1.87;;;;;;;2.52;83.31;98099.47;6220500;28;20195;-51
2023/11/18 00:36:45;;;;;;;1.70;1.30;;;;;;;2.48;85.07;98114.78;6219430;28;20211;-49
2023/11/18 00:39:47;;;;;;;4.27;1.30;;;;;;;2.23;86.47;98122.09;6218958;28;20203;-49
2023/11/18 00:42:49;;;;;;;1.80;1.40;;;;;;;2.23;87.65;98103.69;6218791;28;20192;-51
2023/11/18 00:45:52;;;;;;;2.33;1.60;;;;;;;2.48;82.66;98098.19;6216868;28;20647;-53
2023/11/18 00:48:57;;;;;;;3.20;1.63;;;;;;;2.45;85.11;98127.47;6218134;28;20706;-52
2023/11/18 00:52:00;;;;;;;2.40;1.50;;;;;;;2.43;83.62;98122.41;6229934;28;20237;-52
2023/11/18 00:55:03;;;;;;;1.83;1.50;;;;;;;2.39;85.76;98109.78;6219074;28;20212;-54
2023/11/18 00:58:05;;;;;;;2.47;1.50;;;;;;;2.15;86.91;98122.13;6217340;28;20201;-53
2023/11/18 01:01:07;;;;;;;1.97;1.70;;;;;;;2.01;88.63;98118.47;6219904;28;20768;-48
2023/11/18 01:04:10;;;;;;;2.27;1.97;;;;;;;1.96;88.44;98109.47;6218148;28;20231;-52
2023/11/18 01:07:12;;;;;;;3.90;1.80;;;;;;;2.01;87.84;98112.41;6215901;28;20214;-52
2023/11/18 01:10:14;;;;;;;1.57;1.43;;;;;;;2.26;85.61;98116.44;6216897;28;20227;-53
2023/11/18 01:13:16;;;;;;;2.03;1.60;;;;;;;2.33;84.72;98119.19;6214751;28;20209;-53
2023/11/18 01:16:20;;;;;;;2.33;1.77;;;;;;;2.39;85.82;98121.13;6217208;28;20649;-53
2023/11/18 01:19:23;;;;;;;2.13;1.60;;;;;;;2.32;83.86;98114.94;6216575;28;20193;-54
2023/11/18 01:22:25;;;;;;;1.83;1.57;;;;;;;2.35;84.79;98130.34;6215059;28;20244;-49
2023/11/18 01:25:27;;;;;;;1.67;1.47;;;;;;;2.52;82.69;98142.34;6218396;28;20667;-53
2023/11/18 01:28:32;;;;;;;2.73;1.60;;;;;;;2.64;82.27;98134.84;6224635;28;20217;-52
2023/11/18 01:31:35;;;;;;;3.23;1.53;;;;;;;2.62;82.33;98131.59;6208805;28;20248;-52
2023/11/18 01:34:53;;;;;;;1.93;1.30;;;;;;;2.49;83.72;98147.16;6215587;28;20211;-50
2023/11/18 01:37:55;;;;;;;2.93;1.50;;;;;;;2.55;82.82;98151.69;6219711;28;20209;-52
2023/11/18 01:40:57;;;;;;;2.43;1.67;;;;;;;2.62;81.49;98150.00;6218011;28;20341;-52
2023/11/18 01:43:59;;;;;;;1.60;1.50;;;;;;;2.52;83.01;98149.44;6217952;28;20221;-54
2023/11/18 01:47:05;;;;;;;2.63;1.37;;;;;;;2.37;84.04;98152.03;6216602;28;20566;-53
2023/11/18 01:50:11;;;;;;;3.30;1.90;;;;;;;2.50;83.26;98149.59;6215803;28;20369;-54
2023/11/18 01:53:17;;;;;;;2.13;1.50;;;;;;;2.30;84.75;98153.72;6219088;28;20194;-53
2023/11/18 01:56:21;;;;;;;1.57;1.47;;;;;;;2.13;86.18;98157.50;6217177;28;20198;-51
2023/11/18 01:59:23;;;;;;;1.73;1.60;;;;;;;2.46;83.90;98148.31;6216128;28;20664;-50
2023/11/18 02:02:27;;;;;;;1.53;1.43;;;;;;;2.44;84.76;98160.00;6217540;28;20213;-48
2023/11/18 02:05:30;;;;;;;2.70;1.80;;;;;;;2.82;82.03;98153.72;6216601;28;20215;-51
2023/11/18 02:08:35;;;;;;;2.20;1.60;;;;;;;2.88;80.13;98143.47;6221910;28;20194;-47
2023/11/18 02:11:43;;;;;;;1.83;1.47;;;;;;;2.61;82.04;98127.31;6216447;28;20219;-51
2023/11/18 02:14:45;;;;;;;2.27;1.93;;;;;;;2.86;81.69;98162.09;6217662;28;20317;-52
2023/11/18 02:17:49;;;;;;;2.17;1.80;;;;;;;2.85;81.62;98163.06;6207487;28;20604;-51
2023/11/18 02:20:57;;;;;;;2.50;1.33;;;;;;;3.05;80.72;98163.34;6216832;28;20203;-54
2023/11/18 02:23:59;;;;;;;2.90;1.80;;;;;;;2.94;80.45;98164.59;6217901;28;20260;-52
2023/11/18 02:27:01;;;;;;;2.23;2.03;;;;;;;3.00;80.68;98171.78;6232749;28;20207;-54
2023/11/18 02:30:06;;;;;;;2.30;1.63;;;;;;;3.14;79.47;98161.44;6216005;28;20211;-52
2023/11/18 02:33:20;;;;;;;3.43;1.60;;;;;;;3.08;80.23;98170.88;6192286;28;20253;-53
2023/11/18 02:36:35;;;;;;;1.67;1.50;;;;;;;2.93;80.94;98176.13;6194321;28;20699;-53
2023/11/18 02:39:45;;;;;;;3.23;1.87;;;;;;;2.76;81.79;98158.91;6199823;28;20205;-53
2023/11/18 02:42:52;;;;;;;2.07;1.60;;;;;;;2.92;82.13;98184.22;6197850;28;20576;-49
2023/11/18 02:45:57;;;;;;;2.00;1.70;;;;;;;3.06;80.50;98186.88;6194493;28;20200;-51
2023/11/18 02:49:01;;;;;;;2.77;2.00;;;;;;;3.02;80.35;98184.78;6188215;28;20315;-53
2023/11/18 02:52:05;;;;;;;3.60;1.90;;;;;;;2.85;82.27;98173.59;6181100;28;20207;-53
2023/11/18 02:55:08;;;;;;;2.30;1.83;;;;;;;3.01;81.20;98162.09;6182924;28;20199;-53
2023/11/18 02:58:10;;;;;;;2.97;1.97;;;;;;;2.98;81.30;98180.88;6199186;28;20565;-53
2023/11/18 03:01:13;;;;;;;2.67;1.80;;;;;;;2.81;82.22;98167.06;6199439;28;20187;-49
2023/11/18 03:04:15;;;;;;;3.67;2.20;;;;;;;3.10;80.88;98172.34;6182604;28;20205;-53
2023/11/18 03:07:17;;;;;;;3.83;2.00;;;;;;;2.93;82.09;98172.69;6183348;28;20221;-49
2023/11/18 03:10:23;;;;;;;3.70;2.17;;;;;;;2.97;81.51;98177.41;6183868;28;20236;-52
2023/11/18 03:13:25;;;;;;;2.30;2.10;;;;;;;2.95;82.08;98178.59;6201798;28;20247;-52
2023/11/18 03:16:27;;;;;;;2.63;2.00;;;;;;;2.85;83.43;98177.03;6199446;28;20210;-47
2023/11/18 03:19:29;;;;;;;2.67;2.37;;;;;;;2.99;82.01;98182.50;6198497;28;20654;-51
2023/11/18 03:22:31;;;;;;;2.97;2.10;;;;;;;2.93;82.17;98180.59;6198745;28;20196;-53
2023/11/18 03:25:33;;;;;;;2.37;2.17;;;;;;;2.95;81.59;98187.28;6198462;28;20562;-53
2023/11/18 03:28:36;;;;;;;2.40;2.07;;;;;;;2.91;82.46;98193.13;6194513;28;20217;-49
2023/11/18 03:31:39;;;;;;;4.00;2.17;;;;;;;2.91;82.36;98196.56;6173690;28;20334;-52
2023/11/18 03:34:41;;;;;;;2.80;2.30;;;;;;;2.77;83.31;98195.53;6198589;28;20304;-55
2023/11/18 03:37:44;;;;;;;2.87;2.23;;;;;;;2.83;82.21;98194.81;6200583;28;20272;-50
2023/11/18 03:40:46;;;;;;;2.57;2.20;;;;;;;2.58;84.17;98188.97;6184983;28;20579;-51
2023/11/18 03:43:48;;;;;;;3.30;2.20;;;;;;;2.54;85.57;98197.41;6201553;28;20550;-53
2023/11/18 03:46:51;;;;;;;3.93;1.83;;;;;;;2.41;87.71;98199.81;6203713;28;20658;-54
2023/11/18 03:49:54;;;;;;;3.60;2.30;;;;;;;2.33;86.90;98198.06;6200849;28;20219;-53
2023/11/18 03:52:56;;;;;;;3.80;2.30;;;;;;;2.55;84.93;98196.41;6185126;28;20236;-53
2023/11/18 03:55:58;;;;;;;4.30;2.70;;;;;;;2.52;84.81;98202.03;6182681;28;20277;-54
2023/11/18 03:59:01;;;;;;;3.17;2.73;;;;;;;2.54;84.66;98195.59;6202151;28;20201;-51
2023/11/18 04:02:03;;;;;;;4.50;2.60;;;;;;;2.66;84.15;98203.03;6200652;28;20197;-50
2023/11/18 04:05:06;;;;;;;3.63;2.57;;;;;;;2.56;85.94;98203.28;6200314;28;20697;-54
2023/11/18 04:08:11;;;;;;;5.00;3.03;;;;;;;2.74;83.69;98213.50;6198506;28;20203;-51
2023/11/18 04:11:14;;;;;;;3.00;2.60;;;;;;;2.62;83.99;98212.31;6177989;28;20229;-51
2023/11/18 04:14:16;;;;;;;3.17;2.40;;;;;;;2.73;83.03;98217.94;6195535;28;20197;-52
2023/11/18 04:17:18;;;;;;;3.07;2.07;;;;;;;3.10;79.77;98208.34;6179326;28;20201;-53
2023/11/18 04:20:21;;;;;;;2.80;2.07;;;;;;;2.94;80.47;98213.78;6196331;28;20188;-49
2023/11/18 04:23:23;;;;;;;3.13;2.53;;;;;;;2.89;80.86;98219.59;6192932;28;20217;-48
2023/11/18 04:26:25;;;;;;;3.57;2.10;;;;;;;3.13;78.33;98225.63;6201485;28;20443;-52
2023/11/18 04:29:27;;;;;;;1.90;1.70;;;;;;;3.04;78.57;98217.78;6202883;28;20571;-50
2023/11/18 04:32:32;;;;;;;4.30;1.90;;;;;;;2.98;79.90;98209.81;6198305;28;20703;-51
2023/11/18 04:35:35;;;;;;;3.53;1.70;;;;;;;2.95;79.18;98210.97;6219095;28;20225;-54
2023/11/18 04:38:37;;;;;;;2.53;2.23;;;;;;;3.05;79.30;98210.72;6219318;28;20204;-52
2023/11/18 04:41:39;;;;;;;2.00;1.70;;;;;;;3.19;77.26;98215.16;6219405;28;20748;-51
2023/11/18 04:44:42;;;;;;;1.33;1.23;;;;;;;2.95;80.09;98202.25;6198936;28;20243;-52
2023/11/18 04:47:44;;;;;;;2.17;1.73;;;;;;;2.91;81.18;98222.06;6218802;28;20560;-51
2023/11/18 04:50:47;;;;;;;3.27;2.10;;;;;;;2.78;83.59;98235.81;6218965;28;20217;-53
2023/11/18 04:53:49;;;;;;;4.13;1.60;;;;;;;2.64;84.27;98226.91;6219214;28;20653;-53
2023/11/18 04:56:52;;;;;;;3.47;1.63;;;;;;;2.67;83.25;98226.56;6218848;28;20332;-50
2023/11/18 04:59:54;;;;;;;1.40;1.30;;;;;;;2.52;84.48;98237.03;6215823;28;20192;-53
2023/11/18 05:02:57;;;;;;;1.70;1.57;;;;;;;2.33;86.21;98227.81;6219209;28;20637;-50
2023/11/18 05:06:00;;;;;;;2.60;1.90;;;;;;;2.56;83.66;98246.22;6217866;28;20210;-50
2023/11/18 05:09:07;;;;;;;2.60;2.13;;;;;;;2.69;81.33;98239.50;6201709;28;20195;-53
2023/11/18 05:12:09;;;;;;;2.00;1.80;;;;;;;2.76;81.63;98246.53;6214011;28;20239;-52
2023/11/18 05:15:12;;;;;;;2.30;1.77;;;;;;;2.77;82.38;98249.97;6218237;28;20198;-53
2023/11/18 05:18:15;;;;;;;2.60;1.90;;;;;;;2.78;81.92;98246.34;6218571;28;20219;-53
2023/11/18 05:21:18;;;;;;;2.07;1.60;;;;;;;2.83;82.05;98259.78;6218051;28;20281;-53
2023/11/18 05:24:20;;;;;;;2.00;1.57;;;;;;;2.59;82.63;98227.44;6218000;28;20200;-51
2023/11/18 05:27:22;;;;;;;2.00;1.80;;;;;;;2.95;79.69;98263.59;6217863;28;20192;-53
2023/11/18 05:30:25;;;;;;;2.13;1.60;;;;;;;3.22;77.08;98261.38;6217920;28;20208;-54
2023/11/18 05:33:28;;;;;;;1.50;1.40;;;;;;;3.07;79.77;98251.66;6217734;28;20726;-51
2023/11/18 05:36:36;;;;;;;1.70;1.60;;;;;;;3.06;79.44;98265.00;6216702;28;20208;-52
2023/11/18 05:39:43;;;;;;;2.33;1.83;;;;;;;2.94;81.29;98243.56;6217451;28;20692;-50
2023/11/18 05:42:48;;;;;;;2.40;1.77;;;;;;;3.08;80.12;98260.38;6216385;28;20295;-52
2023/11/18 05:49:13;;;;;;;2.10;1.67;;;;;;;3.00;79.99;98271.78;6215418;28;20565;-53
2023/11/18 05:52:15;;;;;;;3.50;1.80;;;;;;;3.03;79.13;98278.53;6216277;28;20204;-53
2023/11/18 05:55:17;;;;;;;1.97;1.70;;;;;;;3.16;79.19;98264.75;6208268;28;20212;-50
2023/11/18 05:58:19;;;;;;;2.03;1.60;;;;;;;3.12;78.55;98285.34;6217334;28;20587;-49
2023/11/18 06:01:22;;;;;;;3.87;2.07;;;;;;;3.08;79.05;98279.59;6216406;28;20274;-50
2023/11/18 06:04:25;;;;;;;4.53;1.73;;;;;;;3.06;82.23;98289.50;6217534;28;20200;-48
2023/11/18 06:07:28;;;;;;;1.90;1.80;;;;;;;2.98;82.52;98289.56;6216813;28;20223;-49
2023/11/18 06:10:32;;;;;;;3.07;1.93;;;;;;;2.96;80.41;98291.59;6215857;28;20219;-49
2023/11/18 06:13:36;;;;;;;1.67;1.57;;;;;;;2.91;82.73;98298.38;6214034;28;20200;-49
2023/11/18 06:16:41;;;;;;;3.90;1.80;;;;;;;2.82;84.53;98308.16;6198824;28;20211;-49
2023/11/18 06:19:44;;;;;;;3.23;1.83;;;;;;;2.80;84.30;98321.47;6213992;28;20276;-52
2023/11/18 06:22:46;;;;;;;2.20;2.00;;;;;;;2.80;85.28;98318.81;6216170;28;20234;-52
2023/11/18 06:25:48;;;;;;;2.70;1.90;;;;;;;2.89;84.10;98337.19;6216234;28;20193;-50
2023/11/18 06:28:50;;;;;;;2.23;2.03;;;;;;;2.90;80.95;98333.56;6216429;28;20564;-51
2023/11/18 06:31:52;;;;;;;2.90;2.10;;;;;;;2.93;84.72;98346.38;6216309;28;20893;-51
2023/11/18 06:35:58;;;;;;;1.80;1.30;;;;;;;3.13;82.26;98344.88;6219024;28;20197;-50
2023/11/18 06:39:48;;;;;;;2.10;1.90;;;;;;;3.07;82.02;98364.03;6192028;28;20557;-52
2023/11/18 06:43:02;;;;;;;2.10;1.80;;;;;;;3.12;79.42;98361.69;6220561;28;20822;-52
2023/11/18 06:46:20;;;;;;;2.00;1.80;;;;;;;3.41;77.76;98368.03;6218651;28;20196;-49
2023/11/18 06:50:00;;;;;;;2.23;1.93;;;;;;;3.27;78.23;98370.44;6218007;28;20238;-52
2023/11/18 06:53:29;;;;;;;2.53;1.70;;;;;;;3.25;79.62;98368.97;6217480;28;20217;-51
2023/11/18 06:56:32;;;;;;;5.60;2.10;;;;;;;3.41;78.16;98378.56;6221468;28;20193;-50
2023/11/18 06:59:39;;;;;;;3.53;1.90;;;;;;;3.44;81.41;98391.34;6199698;28;20250;-52
2023/11/18 07:02:54;;;;;;;3.97;3.03;;;;;;;3.31;80.41;98394.59;6221057;28;20206;-52
2023/11/18 07:06:14;;;;;;;3.60;1.87;;;;;;;3.41;76.77;98371.47;6218761;28;20331;-53
2023/11/18 07:10:13;;;;;;;2.10;1.90;;;;;;;3.54;77.01;98405.06;6219124;28;20560;-52
2023/11/18 07:13:38;;;;;;;2.03;1.80;;;;;;;3.72;74.57;98408.22;6216909;28;20706;-50
2023/11/18 07:17:00;;;;;;;1.90;1.73;;;;;;;3.84;73.96;98401.50;6220439;28;20255;-53
2023/11/18 07:20:53;;;;;;;3.47;1.83;;;;;;;3.70;75.24;98409.41;6220104;28;20279;-54
2023/11/18 07:24:31;;;;;;;2.10;1.90;;;;;;;3.90;74.10;98404.41;6214698;28;20204;-50
2023/11/18 07:27:36;;;;;;;4.63;2.37;;;;;;;3.86;73.99;98417.13;6220917;28;20193;-49
2023/11/18 07:30:47;;;;;;;2.33;2.13;;;;;;;3.84;73.39;98400.66;6202980;28;20216;-51
2023/11/18 07:33:52;;;;;;;3.80;2.10;;;;;;;3.87;74.66;98416.13;6199771;28;20208;-51
2023/11/18 07:36:56;;;;;;;2.43;2.03;;;;;;;4.04;72.58;98422.03;6197714;28;20197;-51
2023/11/18 07:40:01;;;;;;;2.53;2.13;;;;;;;3.91;74.76;98427.13;6198376;28;20205;-53
2023/11/18 07:43:15;;;;;;;4.73;1.87;;;;;;;4.08;72.79;98425.94;6194851;28;20190;-52
2023/11/18 07:46:18;;;;;;;2.20;2.00;;;;;;;4.04;72.03;98406.22;6192540;28;20201;-52
2023/11/18 07:49:20;;;;;;;2.03;1.83;;;;;;;4.00;73.44;98431.31;6195913;28;20192;-52
2023/11/18 07:52:23;;;;;;;2.53;2.27;;;;;;;3.99;72.88;98427.03;6194041;28;20210;-51
2023/11/18 07:55:25;;;;;;;2.37;2.17;;;;;;;3.97;73.41;98434.31;6196375;28;20211;-52
2023/11/18 07:58:27;;;;;;;2.63;2.43;;;;;;;4.01;75.06;98427.69;6195989;28;20186;-50
2023/11/18 08:01:30;;;;;;;2.53;1.97;;;;;;;4.04;72.66;98430.78;6195970;28;20272;-52
2023/11/18 08:04:32;;;;;;;3.00;2.33;;;;;;;3.96;74.06;98425.59;6195191;28;20205;-52
2023/11/18 08:07:35;;;;;;;2.90;1.83;;;;;;;3.86;75.60;98399.50;6195670;28;20557;-52
2023/11/18 08:10:39;;;;;;;2.57;2.20;;;;;;;4.21;73.43;98426.13;6195542;28;20206;-53
2023/11/18 08:13:41;;;;;;;3.63;2.43;;;;;;;4.24;74.42;98432.88;6192292;28;20200;-53
2023/11/18 08:16:43;;;;;;;4.10;2.70;;;;;;;4.18;75.20;98425.66;6195945;28;20275;-52
2023/11/18 08:19:46;;;;;;;2.80;2.60;;;;;;;4.31;72.44;98433.78;6178098;28;20609;-52
2023/11/18 08:22:48;;;;;;;3.10;2.50;;;;;;;4.10;74.92;98437.16;6194027;28;20194;-50
2023/11/18 08:25:50;;;;;;;3.03;2.30;;;;;;;4.21;74.79;98444.59;6194440;28;20399;-53
2023/11/18 08:28:53;;;;;;;2.67;2.37;;;;;;;4.10;75.63;98447.69;6189449;28;20717;-52
2023/11/18 08:31:55;;;;;;;3.10;2.40;;;;;;;4.19;74.95;98451.03;6194606;28;20300;-48
2023/11/18 08:34:57;;;;;;;4.57;2.60;;;;;;;3.93;75.81;98420.66;6194002;28;20207;-48
2023/11/18 08:38:01;;;;;;;2.77;2.10;;;;;;;4.19;74.77;98449.25;6192156;28;20576;-51
2023/11/18 08:41:09;;;;;;;2.50;2.30;;;;;;;4.23;76.11;98458.41;6194667;28;20216;-50
2023/11/18 08:44:13;;;;;;;2.47;2.23;;;;;;;4.12;73.30;98419.31;6194910;28;20198;-48
2023/11/18 08:47:25;;;;;;;2.50;2.30;;;;;;;4.43;72.83;98440.19;6193605;28;20321;-48
2023/11/18 08:50:28;;;;;;;2.73;2.43;;;;;;;4.07;73.91;98411.13;6194657;28;20236;-52
2023/11/18 08:53:35;;;;;;;4.10;2.40;;;;;;;4.43;73.37;98453.38;6194667;28;20205;-53
2023/11/18 08:56:40;;;;;;;2.80;2.50;;;;;;;4.33;72.95;98440.47;6194510;28;20198;-51
2023/11/18 08:59:44;;;;;;;3.70;2.57;;;;;;;4.61;74.00;98460.94;6194613;28;20239;-53
2023/11/18 09:02:46;;;;;;;3.47;2.40;;;;;;;4.54;73.36;98460.88;6195116;28;20190;-50
2023/11/18 09:05:57;;;;;;;3.87;2.67;;;;;;;4.59;72.30;98453.22;6193246;28;20216;-52
2023/11/18 09:09:05;;;;;;;2.63;2.30;;;;;;;4.51;73.47;98465.69;6162226;28;20229;-51
2023/11/18 09:12:08;;;;;;;5.13;2.90;;;;;;;4.44;74.13;98457.69;6193333;28;20338;-52
2023/11/18 09:15:17;;;;;;;2.70;2.50;;;;;;;4.47;75.21;98461.75;6194978;28;20577;-53
2023/11/18 09:18:21;;;;;;;3.60;2.80;;;;;;;4.59;74.06;98453.22;6191351;28;20199;-51
2023/11/18 09:21:29;;;;;;;2.67;2.30;;;;;;;4.51;74.77;98468.31;6194171;28;20812;-51
2023/11/18 09:24:33;;;;;;;3.30;2.50;;;;;;;4.55;76.49;98472.22;6193991;28;20553;-50
2023/11/18 09:27:38;;;;;;;3.50;3.10;;;;;;;4.37;76.91;98433.84;6194278;28;20215;-52
2023/11/18 09:30:57;;;;;;;3.77;2.97;;;;;;;4.30;77.02;98447.97;6194791;28;20211;-50
2023/11/18 09:33:59;;;;;;;3.20;2.67;;;;;;;4.33;78.95;98466.03;6202222;28;20200;-52
2023/11/18 09:37:04;;;;;;;2.93;2.70;;;;;;;4.30;78.40;98472.50;6199775;28;20438;-50
2023/11/18 09:40:13;;;;;;;3.30;2.83;;;;;;;4.26;79.87;98465.97;6197312;28;20201;-50
2023/11/18 09:43:16;;;;;;;3.43;2.50;;;;;;;4.23;78.98;98463.69;6189811;28;20578;-51
2023/11/18 09:46:27;;;;;;;4.43;3.20;;;;;;;4.29;79.35;98473.53;6191316;28;20251;-48
2023/11/18 09:49:53;;;;;;;3.10;2.80;;;;;;;4.43;78.56;98463.13;6186257;28;20284;-53
2023/11/18 09:53:06;;;;;;;4.47;2.63;;;;;;;4.49;79.26;98467.69;6187606;28;20202;-52
2023/11/18 09:56:26;;;;;;;5.07;2.90;;;;;;;4.64;75.32;98452.66;6184226;28;20646;-53
2023/11/18 09:59:35;;;;;;;2.60;2.40;;;;;;;4.62;73.88;98458.09;6187955;28;20691;-52
2023/11/18 10:02:41;;;;;;;3.67;2.97;;;;;;;4.59;74.05;98460.31;6200243;28;20325;-52
2023/11/18 10:05:45;;;;;;;4.23;2.63;;;;;;;4.71;74.23;98461.47;6198162;28;20201;-50
2023/11/18 10:08:53;;;;;;;4.50;2.53;;;;;;;4.44;75.88;98426.03;6196528;28;20226;-52
2023/11/18 10:12:05;;;;;;;3.60;2.73;;;;;;;4.73;73.68;98462.13;6195988;28;20580;-50
2023/11/18 10:15:17;;;;;;;4.83;2.57;;;;;;;4.89;72.69;98447.88;6190769;28;20220;-51
2023/11/18 10:18:22;;;;;;;2.50;2.30;;;;;;;4.78;71.92;98456.25;6185782;28;20709;-51
2023/11/18 10:21:41;;;;;;;2.63;2.37;;;;;;;4.98;71.46;98448.56;6186214;28;20199;-51
2023/11/18 10:24:49;;;;;;;2.60;2.37;;;;;;;5.02;70.82;98455.09;6185571;28;20209;-53
2023/11/18 10:27:58;;;;;;;3.00;2.37;;;;;;;4.97;71.31;98439.81;6184504;28;20272;-53
2023/11/18 10:31:09;;;;;;;2.50;2.30;;;;;;;4.91;72.42;98451.13;6184677;28;20228;-49
2023/11/18 10:34:15;;;;;;;2.43;2.23;;;;;;;5.18;70.16;98446.97;6215312;28;20733;-53
2023/11/18 10:37:17;;;;;;;2.43;2.13;;;;;;;5.29;69.05;98437.72;6214104;28;20657;-52
2023/11/18 10:40:24;;;;;;;3.33;2.00;;;;;;;5.21;70.49;98443.91;6217522;28;20204;-52
2023/11/18 10:43:28;;;;;;;2.50;2.30;;;;;;;5.26;68.98;98444.16;6216651;28;20203;-50
2023/11/18 10:46:32;;;;;;;2.33;2.13;;;;;;;5.12;70.23;98447.69;6216961;28;20208;-49
2023/11/18 10:49:36;;;;;;;4.97;2.37;;;;;;;5.26;69.58;98438.06;6217055;28;20194;-47
2023/11/18 10:52:40;;;;;;;2.53;2.33;;;;;;;5.18;70.88;98436.38;6217068;28;20219;-53
2023/11/18 10:55:43;;;;;;;3.87;2.13;;;;;;;5.08;70.69;98446.44;6217693;28;20197;-51
2023/11/18 10:58:46;;;;;;;3.67;2.60;;;;;;;4.63;70.78;98398.22;6217378;28;20199;-48
2023/11/18 11:01:51;;;;;;;3.13;2.50;;;;;;;5.07;69.95;98444.78;6222193;28;20204;-52
2023/11/18 11:04:53;;;;;;;3.47;2.53;;;;;;;5.10;70.41;98439.16;6222150;28;20205;-51
2023/11/18 11:07:57;;;;;;;2.77;2.50;;;;;;;5.08;71.35;98451.72;6221827;28;20192;-51
2023/11/18 11:11:03;;;;;;;3.17;2.87;;;;;;;5.05;70.88;98452.91;6221494;28;20231;-48
2023/11/18 11:14:10;;;;;;;3.40;2.87;;;;;;;5.17;71.23;98445.28;6222023;28;20225;-50
2023/11/18 11:17:25;;;;;;;3.90;2.47;;;;;;;5.23;70.98;98455.13;6220022;28;20330;-50
2023/11/18 11:20:35;;;;;;;3.87;2.60;;;;;;;5.21;70.60;98443.91;6218452;28;20198;-50
2023/11/18 11:23:53;;;;;;;3.33;2.97;;;;;;;5.21;72.82;98457.13;6221254;28;20224;-51
2023/11/18 11:27:05;;;;;;;4.00;2.70;;;;;;;5.09;71.33;98464.75;6220998;28;20315;-50
2023/11/18 11:30:24;;;;;;;3.23;2.60;;;;;;;5.23;71.54;98449.84;6219158;28;20189;-51
2023/11/18 11:33:58;;;;;;;2.83;2.63;;;;;;;5.08;71.78;98452.53;6204251;28;20227;-50
2023/11/18 11:37:03;;;;;;;4.27;2.60;;;;;;;5.14;71.77;98456.25;6215076;28;20272;-53
2023/11/18 11:40:10;;;;;;;3.70;2.47;;;;;;;5.11;71.95;98461.91;6195435;28;20206;-52
2023/11/18 11:43:15;;;;;;;3.20;2.90;;;;;;;5.16;72.97;98468.25;6205712;28;20670;-50
2023/11/18 11:46:23;;;;;;;3.47;2.80;;;;;;;5.31;71.93;98462.91;6217127;28;20668;-53
2023/11/18 11:49:36;;;;;;;4.23;3.03;;;;;;;5.48;70.70;98455.56;6220594;28;20266;-49
2023/11/18 11:52:48;;;;;;;4.13;2.73;;;;;;;5.34;71.41;98480.22;6206173;28;20233;-54
2023/11/18 11:55:53;;;;;;;4.20;2.57;;;;;;;5.22;72.07;98472.00;6219216;28;20280;-53
2023/11/18 11:58:59;;;;;;;3.07;2.70;;;;;;;5.31;71.71;98462.91;6214576;28;20192;-53
2023/11/18 12:02:07;;;;;;;2.83;2.53;;;;;;;5.38;70.94;98465.63;6217850;28;20211;-52
2023/11/18 12:05:18;;;;;;;4.30;3.33;;;;;;;5.35;71.15;98464.19;6219371;28;20286;-54
2023/11/18 12:08:23;;;;;;;2.87;2.60;;;;;;;5.39;71.82;98460.16;6215119;28;20288;-53
2023/11/18 12:11:27;;;;;;;4.70;2.87;;;;;;;5.38;70.46;98433.94;6217429;28;20303;-52
2023/11/18 12:14:37;;;;;;;5.93;3.10;;;;;;;5.53;70.18;98468.22;6218197;28;20272;-54
2023/11/18 12:18:03;;;;;;;3.97;2.80;;;;;;;5.48;70.92;98457.41;6216536;28;20208;-51
2023/11/18 12:21:07;;;;;;;4.20;2.73;;;;;;;5.54;70.96;98459.28;6217135;28;20732;-52
2023/11/18 12:24:18;;;;;;;3.60;2.80;;;;;;;5.40;71.00;98466.25;6218601;28;20201;-51
2023/11/18 12:27:39;;;;;;;3.80;2.93;;;;;;;5.37;72.09;98458.72;6199147;28;20199;-47
2023/11/18 12:30:52;;;;;;;3.43;3.00;;;;;;;5.31;72.09;98468.19;6213902;28;20212;-54
2023/11/18 12:33:54;;;;;;;4.47;3.10;;;;;;;5.33;71.07;98466.19;6217886;28;20550;-54
2023/11/18 12:37:34;;;;;;;2.80;2.57;;;;;;;5.36;71.94;98470.28;6218358;28;20654;-51
2023/11/18 12:40:59;;;;;;;3.27;2.50;;;;;;;5.33;71.24;98479.41;6172672;28;20216;-52
2023/11/18 12:44:17;;;;;;;4.50;3.13;;;;;;;5.33;70.42;98479.41;6216000;28;20198;-54
2023/11/18 12:47:28;;;;;;;2.93;2.63;;;;;;;5.31;70.43;98480.59;6216324;28;20196;-51
2023/11/18 12:50:34;;;;;;;2.90;2.60;;;;;;;5.31;69.90;98472.66;6217031;28;20674;-54
2023/11/18 12:53:38;;;;;;;2.87;2.57;;;;;;;5.31;69.69;98480.59;6218073;28;20209;-52
2023/11/18 12:56:44;;;;;;;2.80;2.57;;;;;;;5.34;70.08;98445.88;6218390;28;20570;-53
2023/11/18 12:59:46;;;;;;;3.30;3.00;;;;;;;5.44;67.86;98462.22;6213921;28;20216;-52
2023/11/18 13:02:48;;;;;;;4.33;3.17;;;;;;;5.42;69.53;98477.47;6199404;28;20657;-54
2023/11/18 13:05:51;;;;;;;3.43;2.90;;;;;;;5.48;68.60;98476.72;6214138;28;20198;-54
2023/11/18 13:08:54;;;;;;;2.63;2.40;;;;;;;5.43;68.69;98482.56;6210167;28;20208;-50
2023/11/18 13:11:59;;;;;;;3.83;2.87;;;;;;;5.47;68.05;98480.38;6210719;28;20292;-48
2023/11/18 13:15:08;;;;;;;2.80;2.50;;;;;;;5.36;69.18;98479.03;6217087;28;20658;-52
2023/11/18 13:18:12;;;;;;;4.13;2.80;;;;;;;5.18;68.44;98454.88;6199016;28;20202;-51
2023/11/18 13:21:16;;;;;;;2.33;2.13;;;;;;;5.26;69.14;98475.88;6214860;28;20197;-53
2023/11/18 13:24:18;;;;;;;3.90;2.60;;;;;;;5.30;67.46;98478.97;6215167;28;20238;-48
2023/11/18 13:27:22;;;;;;;3.20;2.57;;;;;;;5.36;67.48;98481.66;6216786;28;20198;-52
2023/11/18 13:30:24;;;;;;;3.57;2.50;;;;;;;5.24;67.52;98474.44;6215298;28;20308;-52
2023/11/18 13:33:27;;;;;;;2.43;2.20;;;;;;;5.42;65.32;98466.91;6214632;28;20230;-51
2023/11/18 13:36:31;;;;;;;2.73;2.50;;;;;;;5.35;64.97;98476.56;6198520;28;20196;-53
2023/11/18 13:39:38;;;;;;;2.97;2.37;;;;;;;5.38;64.26;98479.66;6200144;28;20217;-50
2023/11/18 13:42:42;;;;;;;6.30;2.37;;;;;;;5.26;63.46;98480.34;6214209;28;20204;-55
2023/11/18 13:45:52;;;;;;;2.33;2.03;;;;;;;5.09;65.28;98470.03;6217195;28;20754;-55
2023/11/18 13:48:54;;;;;;;2.20;2.00;;;;;;;5.34;61.46;98480.22;6213994;28;20630;-55
2023/11/18 13:51:57;;;;;;;2.60;1.93;;;;;;;4.92;61.61;98411.34;6215176;28;20558;-55
2023/11/18 13:55:00;;;;;;;3.30;1.90;;;;;;;5.18;61.81;98453.06;6214732;28;20212;-53
2023/11/18 13:58:04;;;;;;;2.27;1.70;;;;;;;5.28;60.85;98463.31;6217182;28;20900;-54
2023/11/18 14:01:08;;;;;;;2.27;1.73;;;;;;;5.24;60.27;98467.31;6215106;28;20281;-54
2023/11/18 14:04:10;;;;;;;1.80;1.60;;;;;;;5.29;61.10;98462.31;6216848;28;20187;-54
2023/11/18 14:07:17;;;;;;;2.17;1.80;;;;;;;5.36;59.59;98480.84;6217007;28;20202;-53
2023/11/18 14:10:19;;;;;;;4.00;2.13;;;;;;;5.40;59.23;98488.22;6215543;28;20268;-54
2023/11/18 14:13:22;;;;;;;1.83;1.73;;;;;;;5.36;60.83;98476.38;6216122;28;20263;-55
2023/11/18 14:16:26;;;;;;;2.37;1.90;;;;;;;5.28;60.20;98487.09;6215235;28;20206;-55
2023/11/18 14:19:31;;;;;;;3.17;2.03;;;;;;;5.47;59.44;98485.66;6216599;28;20563;-52
2023/11/18 14:22:34;;;;;;;2.63;2.20;;;;;;;5.41;58.89;98481.09;6213877;28;20192;-53
2023/11/18 14:25:37;;;;;;;2.60;2.30;;;;;;;5.34;59.06;98465.19;6216059;28;20274;-47
2023/11/18 14:28:40;;;;;;;2.27;1.93;;;;;;;5.28;58.51;98467.78;6213257;28;20236;-51
2023/11/18 14:31:43;;;;;;;3.23;2.10;;;;;;;5.14;59.89;98477.38;6216632;28;20236;-49
2023/11/18 14:34:48;;;;;;;1.77;1.67;;;;;;;4.98;60.95;98480.25;6221793;28;20337;-51
2023/11/18 14:37:51;;;;;;;2.70;1.80;;;;;;;4.76;59.99;98453.81;6218379;28;20193;-54
2023/11/18 14:40:53;;;;;;;1.97;1.80;;;;;;;4.94;58.13;98461.31;6221598;28;20206;-53
2023/11/18 14:43:57;;;;;;;1.60;1.50;;;;;;;4.75;59.17;98468.00;6217894;28;20281;-54
2023/11/18 14:47:00;;;;;;;2.07;1.90;;;;;;;4.61;60.77;98474.94;6218852;28;20609;-51
2023/11/18 14:50:03;;;;;;;2.57;1.83;;;;;;;4.69;60.04;98489.06;6220401;28;20212;-51